Time;durP1;ratioP1;P1;durP2;ratioP2;P2;SDS_P1;SDS_P2;PMS_P1;PMS_P2;Temp;Humidity;BMP_temperature;BMP_pressure;BME280_temperature;BME280_humidity;BME280_pressure;Samples;Min_cycle;Max_cycle;Signal;HPM_P1;HPM_P2
2021/05/12 00:01:49;;;;;;;25.60;19.93;;;;;;;13.63;82.33;100008.88;5027700;28;20207;-67
2021/05/12 00:04:15;;;;;;;22.60;18.53;;;;;;;13.62;82.62;100001.81;5031966;28;20222;-67
2021/05/12 00:06:41;;;;;;;24.33;18.37;;;;;;;13.60;82.48;99998.44;5031592;28;20248;-67
2021/05/12 00:09:07;;;;;;;23.67;19.40;;;;;;;13.59;82.74;100007.47;5028706;28;20228;-66
2021/05/12 00:11:33;;;;;;;26.27;18.73;;;;;;;13.58;82.73;100012.94;5025354;28;20221;-67
2021/05/12 00:13:59;;;;;;;27.80;19.87;;;;;;;13.55;82.55;100003.34;5024431;28;20222;-67
2021/05/12 00:16:26;;;;;;;24.13;19.77;;;;;;;13.54;82.77;100007.84;5019975;28;20201;-69
2021/05/12 00:18:52;;;;;;;24.23;18.87;;;;;;;13.53;82.43;100016.84;5022711;28;20248;-67
2021/05/12 00:21:26;;;;;;;22.23;19.03;;;;;;;13.52;82.53;100015.16;5023019;28;20206;-69
2021/05/12 00:23:59;;;;;;;23.47;18.53;;;;;;;13.51;82.50;100015.28;5022386;28;20241;-67
2021/05/12 00:26:26;;;;;;;25.07;19.47;;;;;;;13.51;82.73;100023.31;5019934;28;20210;-67
2021/05/12 00:28:52;;;;;;;28.27;20.27;;;;;;;13.50;82.71;100011.75;5024498;28;20233;-66
2021/05/12 00:31:18;;;;;;;27.70;19.77;;;;;;;13.51;82.62;100015.28;5019093;28;20206;-67
2021/05/12 00:33:45;;;;;;;25.17;19.67;;;;;;;13.52;82.80;100016.97;5031202;28;20277;-67
2021/05/12 00:36:11;;;;;;;27.27;20.13;;;;;;;13.51;82.71;100018.81;5031043;28;20264;-66
2021/05/12 00:38:37;;;;;;;22.33;19.50;;;;;;;13.52;82.61;100015.16;5031283;28;20202;-67
2021/05/12 00:41:03;;;;;;;26.33;19.50;;;;;;;13.53;82.89;100018.66;5031352;28;20202;-69
2021/05/12 00:43:29;;;;;;;25.37;19.13;;;;;;;13.51;82.97;100015.28;5030674;28;20225;-67
2021/05/12 00:45:55;;;;;;;22.87;18.27;;;;;;;13.51;82.71;100015.28;5030008;28;20214;-67
2021/05/12 00:48:21;;;;;;;24.43;18.90;;;;;;;13.50;82.55;100022.44;5029312;28;20297;-66
2021/05/12 00:50:48;;;;;;;20.33;17.63;;;;;;;13.49;82.54;100018.09;5024150;28;20222;-67
2021/05/12 00:53:14;;;;;;;21.33;18.50;;;;;;;13.48;82.80;100018.22;5025403;28;20227;-67
2021/05/12 00:55:40;;;;;;;22.87;18.53;;;;;;;13.47;82.85;100019.19;5029502;28;20210;-67
2021/05/12 00:58:06;;;;;;;23.37;18.77;;;;;;;13.46;82.53;100021.00;5030859;28;20786;-67
2021/05/12 01:00:33;;;;;;;24.87;18.50;;;;;;;13.45;82.84;100015.78;5030493;28;20664;-67
2021/05/12 01:02:59;;;;;;;20.10;17.67;;;;;;;13.43;82.74;100021.31;5027907;28;20268;-67
2021/05/12 01:05:40;;;;;;;23.10;18.10;;;;;;;13.42;82.84;100010.72;5030636;28;20732;-67
2021/05/12 01:08:08;;;;;;;23.83;18.23;;;;;;;13.41;82.59;100014.38;5030526;28;20202;-69
2021/05/12 01:10:35;;;;;;;25.20;18.13;;;;;;;13.39;82.71;100006.47;5030825;28;20226;-67
2021/05/12 01:13:02;;;;;;;23.97;19.27;;;;;;;13.39;83.10;100010.97;5029321;28;20272;-67
2021/05/12 01:15:28;;;;;;;25.97;18.40;;;;;;;13.39;82.73;100009.16;5030226;28;20668;-67
2021/05/12 01:18:07;;;;;;;25.03;19.17;;;;;;;13.36;82.75;100005.88;5029817;28;20778;-67
2021/05/12 01:20:33;;;;;;;27.13;18.40;;;;;;;13.35;82.60;100004.19;5030395;28;20750;-67
2021/05/12 01:23:00;;;;;;;23.67;18.80;;;;;;;13.35;82.98;100009.53;5028733;28;20230;-69
2021/05/12 01:25:26;;;;;;;23.63;19.10;;;;;;;13.33;82.70;100006.16;5021737;28;20669;-69
2021/05/12 01:27:52;;;;;;;23.60;18.93;;;;;;;13.32;83.05;100001.78;5030621;28;20336;-67
2021/05/12 01:30:21;;;;;;;25.33;18.57;;;;;;;13.30;83.04;100015.28;5027345;28;20327;-67
2021/05/12 01:32:47;;;;;;;25.13;18.83;;;;;;;13.30;82.70;100017.94;5029575;28;20245;-67
2021/05/12 01:35:13;;;;;;;23.13;18.43;;;;;;;13.29;82.97;100015.41;5029582;28;20601;-67
2021/05/12 01:37:39;;;;;;;23.23;18.83;;;;;;;13.29;82.87;100012.72;5030433;28;20221;-66
2021/05/12 01:40:09;;;;;;;26.20;18.93;;;;;;;13.27;83.05;100009.31;5029491;28;20203;-67
2021/05/12 01:42:35;;;;;;;23.30;18.77;;;;;;;13.26;83.16;100016.50;5029355;28;20229;-67
2021/05/12 01:45:07;;;;;;;27.57;19.23;;;;;;;13.25;83.23;100020.19;5029796;28;20621;-67
2021/05/12 01:47:33;;;;;;;26.10;19.10;;;;;;;13.26;82.96;100026.34;5030055;28;20202;-67
2021/05/12 01:50:02;;;;;;;25.67;19.47;;;;;;;13.26;83.05;100027.19;5030497;28;20287;-67
2021/05/12 01:52:28;;;;;;;23.33;18.13;;;;;;;13.26;83.20;100024.53;5029076;28;20230;-67
2021/05/12 01:54:54;;;;;;;27.13;18.90;;;;;;;13.26;83.23;100026.34;5029998;28;20205;-69
2021/05/12 01:57:21;;;;;;;29.63;20.03;;;;;;;13.25;83.14;100025.53;5027402;28;20202;-69
2021/05/12 01:59:47;;;;;;;32.63;22.40;;;;;;;13.24;83.42;100023.84;5028809;28;20730;-67
2021/05/12 02:02:13;;;;;;;37.00;22.93;;;;;;;13.25;83.20;100030.03;5019539;28;20202;-67
2021/05/12 02:04:39;;;;;;;32.83;22.97;;;;;;;13.25;83.26;100028.22;5029736;28;20249;-67
2021/05/12 02:07:07;;;;;;;35.27;23.13;;;;;;;13.26;83.23;100019.19;5030513;28;20206;-67
2021/05/12 02:09:38;;;;;;;39.03;25.53;;;;;;;13.26;83.23;100029.88;5029447;28;20256;-67
2021/05/12 02:12:05;;;;;;;41.00;26.53;;;;;;;13.25;83.29;100022.84;5029281;28;20217;-67
2021/05/12 02:14:32;;;;;;;40.23;26.17;;;;;;;13.25;83.53;100028.22;5029232;28;20234;-69
2021/05/12 02:16:58;;;;;;;42.60;26.50;;;;;;;13.24;83.60;100018.47;5029875;28;20214;-69
2021/05/12 02:19:24;;;;;;;38.63;24.20;;;;;;;13.23;83.44;100015.94;5029474;28;20704;-68
2021/05/12 02:21:50;;;;;;;39.70;24.20;;;;;;;13.22;83.18;100024.94;5028292;28;20293;-69
2021/05/12 02:24:16;;;;;;;41.07;25.47;;;;;;;13.20;83.53;100030.41;5026714;28;20225;-68
2021/05/12 02:26:42;;;;;;;43.20;26.17;;;;;;;13.19;83.17;100034.06;5027952;28;20300;-69
2021/05/12 02:29:08;;;;;;;43.03;25.20;;;;;;;13.18;83.20;100041.22;5030039;28;20222;-68
2021/05/12 02:31:35;;;;;;;41.33;26.27;;;;;;;13.16;83.27;100029.81;5024373;28;20289;-68
2021/05/12 02:34:01;;;;;;;44.23;25.53;;;;;;;13.17;83.42;100033.34;5029520;28;20218;-68
2021/05/12 02:36:27;;;;;;;36.90;24.20;;;;;;;13.16;83.28;100020.94;5029663;28;20212;-69
2021/05/12 02:38:53;;;;;;;38.90;24.20;;;;;;;13.15;83.58;100019.25;5029134;28;20297;-69
2021/05/12 02:41:19;;;;;;;40.67;25.37;;;;;;;13.15;83.74;100009.41;5029846;28;20202;-68
2021/05/12 02:43:45;;;;;;;35.00;23.57;;;;;;;13.15;83.58;100020.09;5028029;28;20729;-70
2021/05/12 02:46:11;;;;;;;40.00;25.17;;;;;;;13.14;83.27;100018.38;5029484;28;20210;-68
2021/05/12 02:48:37;;;;;;;42.20;26.07;;;;;;;13.14;83.40;100020.19;5029007;28;20291;-68
2021/05/12 02:51:04;;;;;;;39.13;25.10;;;;;;;13.13;83.71;100019.34;5033424;28;20210;-68
2021/05/12 02:53:30;;;;;;;39.07;25.03;;;;;;;13.13;83.49;100032.69;5032735;28;20226;-69
2021/05/12 02:55:56;;;;;;;36.63;24.33;;;;;;;13.14;83.92;100034.41;5031502;28;20203;-69
2021/05/12 02:58:22;;;;;;;36.83;24.57;;;;;;;13.14;83.56;100030.88;5032956;28;20224;-69
2021/05/12 03:00:48;;;;;;;35.67;23.17;;;;;;;13.14;83.50;100034.41;5032479;28;20199;-68
2021/05/12 03:03:14;;;;;;;36.27;24.30;;;;;;;13.15;83.55;100030.78;5030620;28;20225;-69
2021/05/12 03:05:41;;;;;;;37.00;23.87;;;;;;;13.15;83.88;100036.13;5032000;28;20202;-69
2021/05/12 03:08:08;;;;;;;39.97;24.20;;;;;;;13.14;83.47;100034.41;5032751;28;20199;-69
2021/05/12 03:10:34;;;;;;;39.33;24.10;;;;;;;13.13;83.60;100032.69;5032795;28;20226;-68
2021/05/12 03:13:01;;;;;;;36.40;23.83;;;;;;;13.14;83.77;100036.22;5032177;28;20233;-68
2021/05/12 03:15:28;;;;;;;39.37;24.97;;;;;;;13.14;83.66;100036.22;5033209;28;20202;-69
2021/05/12 03:17:56;;;;;;;37.13;22.90;;;;;;;13.15;83.83;100038.81;5032312;28;20256;-68
2021/05/12 03:20:24;;;;;;;36.57;24.07;;;;;;;13.15;83.76;100036.13;5032945;28;20210;-68
2021/05/12 03:22:51;;;;;;;36.37;24.17;;;;;;;13.15;84.10;100038.81;5031181;28;20226;-68
2021/05/12 03:25:17;;;;;;;35.97;23.53;;;;;;;13.15;83.79;100038.81;5031119;28;20198;-69
2021/05/12 03:27:44;;;;;;;41.97;24.87;;;;;;;13.17;84.29;100049.38;5028462;28;20611;-67
2021/05/12 03:30:13;;;;;;;37.90;24.23;;;;;;;13.18;84.07;100053.75;5031426;28;20230;-67
2021/05/12 03:32:40;;;;;;;40.73;24.30;;;;;;;13.18;83.73;100051.94;5031472;28;20624;-67
2021/05/12 03:35:07;;;;;;;36.70;24.57;;;;;;;13.18;84.10;100045.72;5032476;28;20230;-67
2021/05/12 03:37:33;;;;;;;39.40;24.30;;;;;;;13.19;84.25;100052.78;5032895;28;20206;-70
2021/05/12 03:40:00;;;;;;;37.73;24.13;;;;;;;13.19;83.75;100052.78;5032240;28;20199;-67
2021/05/12 03:42:26;;;;;;;41.73;25.07;;;;;;;13.20;84.07;100054.47;5028847;28;20202;-67
2021/05/12 03:44:52;;;;;;;41.83;26.70;;;;;;;13.21;83.83;100056.19;5032449;28;20210;-67
2021/05/12 03:47:18;;;;;;;39.47;25.60;;;;;;;13.20;83.89;100055.31;5031705;28;20619;-67
2021/05/12 03:49:44;;;;;;;38.93;24.30;;;;;;;13.20;83.63;100058.00;5032248;28;20222;-67
2021/05/12 03:52:10;;;;;;;40.50;23.67;;;;;;;13.20;84.08;100055.31;5031303;28;20206;-67
2021/05/12 03:54:36;;;;;;;40.23;24.77;;;;;;;13.22;83.67;100065.03;5032282;28;20218;-67
2021/05/12 03:57:03;;;;;;;39.33;25.20;;;;;;;13.23;83.96;100064.06;5053542;22;20234;-67
2021/05/12 03:59:29;;;;;;;37.77;24.40;;;;;;;13.22;84.06;100068.56;5047682;28;20205;-67
2021/05/12 04:01:55;;;;;;;36.27;23.67;;;;;;;13.23;83.88;100066.75;5043420;28;20221;-67
2021/05/12 04:04:21;;;;;;;34.23;23.10;;;;;;;13.24;83.81;100066.63;5046526;28;20206;-66
2021/05/12 04:06:48;;;;;;;37.60;23.17;;;;;;;13.24;83.88;100065.78;5037903;28;20298;-67
2021/05/12 04:09:15;;;;;;;38.63;24.03;;;;;;;13.25;84.05;100067.47;5020964;28;20230;-67
2021/05/12 04:11:44;;;;;;;36.60;23.47;;;;;;;13.26;83.85;100074.47;5010632;28;20597;-66
2021/05/12 04:14:11;;;;;;;35.30;22.37;;;;;;;13.26;83.69;100077.16;5011045;28;20210;-67
2021/05/12 04:16:37;;;;;;;36.27;22.50;;;;;;;13.24;83.71;100077.31;5011150;28;20238;-66
2021/05/12 04:19:03;;;;;;;34.10;21.47;;;;;;;13.25;83.91;100062.97;5006406;28;20581;-67
2021/05/12 04:21:30;;;;;;;38.57;22.97;;;;;;;13.25;83.93;100076.34;5009375;28;20203;-67
2021/05/12 04:23:56;;;;;;;30.27;20.03;;;;;;;13.26;83.96;100077.16;5011598;28;20210;-67
2021/05/12 04:26:22;;;;;;;32.83;22.00;;;;;;;13.25;83.73;100072.81;5012017;28;20225;-67
2021/05/12 04:28:48;;;;;;;30.87;21.23;;;;;;;13.22;83.56;100076.59;5008520;28;20215;-67
2021/05/12 04:31:15;;;;;;;32.03;21.13;;;;;;;13.21;83.79;100077.56;5005727;28;20211;-67
2021/05/12 04:33:42;;;;;;;34.77;22.07;;;;;;;13.18;83.86;100067.97;5009267;28;20578;-67
2021/05/12 04:36:08;;;;;;;36.97;22.50;;;;;;;13.18;83.55;100077.81;5008032;28;20218;-67
2021/05/12 04:38:34;;;;;;;39.07;24.17;;;;;;;13.16;83.91;100079.75;5007970;28;20203;-67
2021/05/12 04:41:00;;;;;;;40.47;24.73;;;;;;;13.16;83.76;100090.47;5009699;28;20207;-67
2021/05/12 04:43:26;;;;;;;38.50;25.20;;;;;;;13.15;83.57;100094.09;5005383;28;20222;-67
2021/05/12 04:45:52;;;;;;;41.70;26.53;;;;;;;13.14;83.93;100098.56;5004164;28;20620;-67
2021/05/12 04:48:19;;;;;;;45.97;26.53;;;;;;;13.14;83.60;100087.03;5009886;28;20209;-67
2021/05/12 04:50:45;;;;;;;43.50;26.77;;;;;;;13.14;84.07;100106.59;4999235;28;20239;-67
2021/05/12 04:53:11;;;;;;;43.73;27.63;;;;;;;13.15;84.03;100104.81;5004261;28;20672;-67
2021/05/12 04:55:37;;;;;;;40.83;27.30;;;;;;;13.15;83.52;100107.47;5006211;28;20211;-67
2021/05/12 04:58:03;;;;;;;44.10;27.67;;;;;;;13.16;83.85;100104.69;5006726;28;20517;-67
2021/05/12 05:00:29;;;;;;;41.07;27.30;;;;;;;13.15;83.55;100111.00;5006753;28;20202;-67
2021/05/12 05:02:56;;;;;;;48.90;29.50;;;;;;;13.17;83.63;100109.06;5009354;28;20650;-67
2021/05/12 05:05:25;;;;;;;50.80;31.10;;;;;;;13.17;83.58;100119.75;5005019;28;20704;-67
2021/05/12 05:07:51;;;;;;;48.10;30.97;;;;;;;13.18;83.80;100126.78;5003241;28;20233;-67
2021/05/12 05:10:19;;;;;;;49.13;31.97;;;;;;;13.18;83.70;100121.44;5005685;28;20314;-67
2021/05/12 05:12:45;;;;;;;49.13;31.17;;;;;;;13.18;83.52;100120.59;5000295;28;20213;-67
2021/05/12 05:15:12;;;;;;;46.63;29.97;;;;;;;13.18;83.63;100125.94;5009189;28;20248;-67
2021/05/12 05:17:39;;;;;;;55.30;32.17;;;;;;;13.17;83.57;100121.56;5006355;28;20245;-67
2021/05/12 05:20:07;;;;;;;47.10;30.67;;;;;;;13.16;83.26;100120.72;5006458;28;20227;-67
2021/05/12 05:22:36;;;;;;;49.97;31.07;;;;;;;13.17;83.38;100127.75;5006348;28;20563;-67
2021/05/12 05:25:02;;;;;;;47.70;30.47;;;;;;;13.18;83.32;100125.94;5007883;28;20217;-67
2021/05/12 05:27:28;;;;;;;47.23;31.03;;;;;;;13.19;83.40;100128.50;5002065;28;20231;-67
2021/05/12 05:29:54;;;;;;;47.87;31.57;;;;;;;13.20;83.60;100127.53;5005451;28;20570;-69
2021/05/12 05:32:21;;;;;;;49.43;30.47;;;;;;;13.23;83.65;100129.09;5006740;28;20215;-69
2021/05/12 05:34:48;;;;;;;47.17;31.00;;;;;;;13.26;83.39;100127.97;5008269;28;20293;-69
2021/05/12 05:37:14;;;;;;;48.80;31.27;;;;;;;13.27;83.26;100129.66;5007899;28;20306;-69
2021/05/12 05:39:41;;;;;;;44.57;29.63;;;;;;;13.29;83.32;100123.22;5008135;28;20687;-69
2021/05/12 05:42:09;;;;;;;44.30;30.30;;;;;;;13.31;83.37;100115.06;5008173;28;20207;-70
2021/05/12 05:44:36;;;;;;;43.27;27.97;;;;;;;13.32;83.42;100120.28;5008285;28;20276;-69
2021/05/12 05:47:03;;;;;;;39.17;25.90;;;;;;;13.34;83.35;100130.88;5009237;28;20242;-69
2021/05/12 05:49:29;;;;;;;35.87;24.40;;;;;;;13.34;83.24;100126.38;5009609;28;20235;-69
2021/05/12 05:51:55;;;;;;;37.77;24.03;;;;;;;13.35;83.14;100133.41;5004167;28;20210;-68
2021/05/12 05:54:25;;;;;;;35.50;24.13;;;;;;;13.38;82.85;100137.66;5007785;28;20552;-69
2021/05/12 05:56:52;;;;;;;30.27;21.73;;;;;;;13.40;82.96;100127.69;5008019;28;20245;-69
2021/05/12 05:59:18;;;;;;;31.70;21.30;;;;;;;13.40;82.71;100131.22;5007776;28;20685;-69
2021/05/12 06:01:45;;;;;;;28.40;20.17;;;;;;;13.40;82.70;100128.53;5006608;28;20234;-69
2021/05/12 06:04:11;;;;;;;34.37;23.13;;;;;;;13.42;82.63;100134.63;5009234;28;20211;-70
2021/05/12 06:06:40;;;;;;;28.27;20.33;;;;;;;13.44;82.57;100134.47;5009666;28;20222;-71
2021/05/12 06:09:06;;;;;;;31.17;21.27;;;;;;;13.43;82.06;100135.47;5009395;28;20310;-70
2021/05/12 06:11:32;;;;;;;30.47;21.33;;;;;;;13.42;82.17;100134.63;5008365;28;20671;-68
2021/05/12 06:14:00;;;;;;;28.53;19.93;;;;;;;13.42;81.94;100144.47;5009121;28;20354;-69
2021/05/12 06:16:26;;;;;;;26.63;20.23;;;;;;;13.42;82.20;100144.47;5009807;28;20249;-69
2021/05/12 06:18:52;;;;;;;26.87;20.20;;;;;;;13.41;81.67;100154.31;5009488;28;20207;-70
2021/05/12 06:21:18;;;;;;;25.73;19.90;;;;;;;13.42;82.07;100155.16;5008559;28;20199;-69
2021/05/12 06:23:44;;;;;;;26.20;19.40;;;;;;;13.42;81.84;100155.16;5010068;28;20571;-69
2021/05/12 06:26:15;;;;;;;26.10;19.07;;;;;;;13.40;81.44;100155.28;5011788;28;20226;-69
2021/05/12 06:28:42;;;;;;;26.13;18.77;;;;;;;13.39;81.62;100156.28;5011957;28;20633;-69
2021/05/12 06:31:09;;;;;;;25.83;18.67;;;;;;;13.38;81.25;100159.91;5012797;28;20222;-69
2021/05/12 06:33:37;;;;;;;27.53;20.33;;;;;;;13.36;81.36;100155.66;5011356;28;20575;-69
2021/05/12 06:36:04;;;;;;;30.30;20.93;;;;;;;13.36;81.52;100161.00;5012766;28;20222;-70
2021/05/12 06:38:30;;;;;;;27.67;18.77;;;;;;;13.36;81.57;100166.38;5012740;28;20209;-69
2021/05/12 06:40:57;;;;;;;28.30;20.67;;;;;;;13.35;81.16;100178.03;5013118;28;20199;-69
2021/05/12 06:43:23;;;;;;;28.37;21.00;;;;;;;13.36;81.07;100177.91;5012304;28;20225;-69
2021/05/12 06:45:49;;;;;;;35.30;23.10;;;;;;;13.38;81.17;100180.47;5011778;28;20211;-70
2021/05/12 06:48:16;;;;;;;29.67;20.73;;;;;;;13.38;80.96;100175.13;5013039;28;20203;-69
2021/05/12 06:50:43;;;;;;;30.90;20.23;;;;;;;13.38;81.00;100175.13;5011484;28;20231;-70
2021/05/12 06:53:09;;;;;;;29.00;20.37;;;;;;;13.37;81.17;100171.59;5011882;28;20761;-71
2021/05/12 06:55:35;;;;;;;28.77;20.73;;;;;;;13.36;80.71;100182.41;5012783;28;20812;-70
2021/05/12 06:58:01;;;;;;;29.70;21.83;;;;;;;13.37;81.02;100184.13;5012444;28;20239;-70
2021/05/12 07:00:27;;;;;;;28.23;20.53;;;;;;;13.38;81.10;100186.66;5011558;28;20205;-69
2021/05/12 07:02:54;;;;;;;25.83;17.90;;;;;;;13.40;80.77;100183.88;5011876;28;20225;-69
2021/05/12 07:05:21;;;;;;;22.83;16.57;;;;;;;13.39;80.82;100193.72;5013315;28;20207;-69
2021/05/12 07:07:48;;;;;;;22.20;17.37;;;;;;;13.39;80.84;100193.72;5012102;28;20716;-69
2021/05/12 07:10:15;;;;;;;21.33;14.93;;;;;;;13.41;80.46;100198.94;5011585;28;20226;-70
2021/05/12 07:12:41;;;;;;;21.73;15.77;;;;;;;13.41;80.47;100202.47;5011155;28;20230;-69
2021/05/12 07:15:09;;;;;;;22.20;15.93;;;;;;;13.44;80.67;100204.88;5011760;28;20207;-70
2021/05/12 07:17:35;;;;;;;18.40;14.47;;;;;;;13.48;80.21;100208.16;5011289;28;20608;-70
2021/05/12 07:20:02;;;;;;;18.77;13.53;;;;;;;13.49;80.08;100208.03;5012094;28;20214;-70
2021/05/12 07:22:29;;;;;;;17.50;14.47;;;;;;;13.50;80.22;100222.25;5011341;28;20210;-70
2021/05/12 07:24:55;;;;;;;17.77;13.50;;;;;;;13.50;80.05;100228.44;5012889;28;20209;-70
2021/05/12 07:27:22;;;;;;;13.13;11.60;;;;;;;13.51;79.65;100214.09;5010256;28;20597;-70
2021/05/12 07:29:48;;;;;;;15.00;11.47;;;;;;;13.50;79.44;100217.75;5010124;28;20242;-69
2021/05/12 07:32:15;;;;;;;13.03;11.27;;;;;;;13.49;79.82;100224.06;5005455;28;20835;-70
2021/05/12 07:34:41;;;;;;;13.63;11.43;;;;;;;13.48;79.42;100235.75;5005362;28;20202;-70
2021/05/12 07:37:07;;;;;;;16.10;12.53;;;;;;;13.47;78.79;100228.69;5008003;28;20667;-69
2021/05/12 07:39:36;;;;;;;14.60;12.20;;;;;;;13.45;78.82;100224.44;5011223;28;20202;-69
2021/05/12 07:42:06;;;;;;;14.43;11.33;;;;;;;13.44;79.09;100230.75;5009530;28;21218;-70
2021/05/12 07:44:32;;;;;;;16.70;13.03;;;;;;;13.45;78.80;100235.13;5010282;28;20207;-70
2021/05/12 07:46:58;;;;;;;14.87;13.00;;;;;;;13.47;78.91;100241.22;5008194;28;20684;-70
2021/05/12 07:49:24;;;;;;;14.43;12.23;;;;;;;13.50;78.58;100239.16;5011922;28;20207;-70
2021/05/12 07:51:50;;;;;;;16.30;13.37;;;;;;;13.54;78.68;100250.47;5008515;28;20543;-69
2021/05/12 07:54:16;;;;;;;16.97;13.07;;;;;;;13.57;79.27;100247.53;5010620;28;20215;-69
2021/05/12 07:56:43;;;;;;;14.63;11.93;;;;;;;13.61;78.92;100243.63;5010654;28;20540;-70
2021/05/12 07:59:09;;;;;;;13.97;11.33;;;;;;;13.63;78.70;100252.34;5012380;28;20199;-71
2021/05/12 08:01:39;;;;;;;13.77;11.57;;;;;;;13.64;78.54;100253.22;5010352;28;20203;-70
2021/05/12 08:04:05;;;;;;;15.97;11.60;;;;;;;13.64;78.72;100248.72;5009858;28;20673;-70
2021/05/12 08:06:31;;;;;;;14.23;11.80;;;;;;;13.67;78.45;100252.97;5011437;28;20225;-70
2021/05/12 08:08:57;;;;;;;14.90;11.17;;;;;;;13.71;78.76;100252.59;5011089;28;20198;-69
2021/05/12 08:11:23;;;;;;;12.90;11.23;;;;;;;13.72;78.50;100253.44;5010862;28;20738;-70
2021/05/12 08:13:51;;;;;;;14.70;11.60;;;;;;;13.73;78.51;100250.66;5010171;28;20203;-69
2021/05/12 08:16:18;;;;;;;15.63;11.97;;;;;;;13.78;78.41;100259.16;5009625;28;20792;-70
2021/05/12 08:18:47;;;;;;;13.27;10.73;;;;;;;13.84;79.08;100265.81;5010788;28;20207;-70
2021/05/12 08:21:13;;;;;;;14.73;11.03;;;;;;;13.88;79.16;100264.56;5010423;28;20285;-71
2021/05/12 08:23:39;;;;;;;12.97;10.80;;;;;;;13.94;79.06;100258.72;5007852;28;20260;-70
2021/05/12 08:26:05;;;;;;;11.97;10.67;;;;;;;14.00;78.80;100268.03;5008618;28;20607;-71
2021/05/12 08:28:31;;;;;;;13.23;11.33;;;;;;;14.06;78.94;100262.19;5009498;28;20238;-70
2021/05/12 08:30:58;;;;;;;12.70;10.33;;;;;;;14.10;79.22;100267.16;5009732;28;20231;-70
2021/05/12 08:33:25;;;;;;;11.03;9.87;;;;;;;14.15;78.70;100261.44;5008644;28;20708;-71
2021/05/12 08:35:52;;;;;;;12.50;10.07;;;;;;;14.16;78.69;100260.41;5008951;28;20222;-71
2021/05/12 08:38:20;;;;;;;12.87;10.73;;;;;;;14.15;78.46;100267.59;5007424;28;20211;-72
2021/05/12 08:40:47;;;;;;;16.70;10.23;;;;;;;14.12;78.05;100265.22;5010299;28;20268;-72
2021/05/12 08:43:15;;;;;;;11.20;10.10;;;;;;;14.12;78.20;100261.69;5009481;28;20203;-71
2021/05/12 08:45:43;;;;;;;11.57;9.93;;;;;;;14.14;78.01;100259.72;5006953;28;20676;-71
2021/05/12 08:48:14;;;;;;;11.53;9.47;;;;;;;14.16;77.91;100257.75;5009522;28;20574;-72
2021/05/12 08:50:41;;;;;;;12.57;10.03;;;;;;;14.20;77.78;100251.16;5009500;28;20369;-73
2021/05/12 08:53:07;;;;;;;11.67;10.03;;;;;;;14.25;77.88;100262.34;5007156;28;20210;-72
2021/05/12 08:55:33;;;;;;;10.47;9.23;;;;;;;14.30;78.01;100265.50;5008373;28;20668;-71
2021/05/12 08:58:00;;;;;;;11.47;10.13;;;;;;;14.33;77.35;100265.19;5007491;28;20288;-72
2021/05/12 09:00:26;;;;;;;12.07;10.50;;;;;;;14.39;77.66;100264.69;5008665;28;20624;-72
2021/05/12 09:02:53;;;;;;;9.83;8.80;;;;;;;14.46;77.54;100255.19;5009336;28;20229;-72
2021/05/12 09:05:21;;;;;;;9.63;8.67;;;;;;;14.48;77.19;100255.06;5002929;28;20687;-72
2021/05/12 09:07:48;;;;;;;10.13;9.13;;;;;;;14.54;77.38;100254.50;5007700;28;20645;-72
2021/05/12 09:10:15;;;;;;;9.50;8.60;;;;;;;14.59;77.07;100263.03;5008585;28;20230;-72
2021/05/12 09:12:42;;;;;;;9.30;8.23;;;;;;;14.61;77.06;100254.84;5008779;28;20215;-72
2021/05/12 09:15:11;;;;;;;10.83;9.17;;;;;;;14.64;76.53;100250.06;5006007;28;20242;-72
2021/05/12 09:17:41;;;;;;;9.20;8.30;;;;;;;14.70;76.05;100252.22;5005765;28;20657;-73
2021/05/12 09:20:43;;;;;;;9.53;8.63;;;;;;;14.75;75.83;100260.72;5008467;28;20677;-73
2021/05/12 09:23:18;;;;;;;9.53;8.43;;;;;;;14.78;75.01;100259.59;4999725;28;20252;-73
2021/05/12 09:25:56;;;;;;;10.13;9.13;;;;;;;14.83;75.06;100252.00;5008535;28;20198;-72
2021/05/12 09:28:27;;;;;;;9.07;8.17;;;;;;;14.88;74.28;100250.59;5007612;28;20218;-72
2021/05/12 09:31:04;;;;;;;9.90;8.90;;;;;;;14.94;74.32;100254.59;5010816;28;20234;-72
2021/05/12 09:33:33;;;;;;;10.40;9.10;;;;;;;14.97;74.26;100254.31;5006340;28;20207;-72
2021/05/12 09:36:00;;;;;;;8.93;8.03;;;;;;;14.99;73.91;100264.91;5004978;28;20211;-71
2021/05/12 09:38:29;;;;;;;9.67;8.67;;;;;;;14.96;73.28;100259.81;5007275;28;20736;-72
2021/05/12 09:41:07;;;;;;;8.87;7.97;;;;;;;14.95;73.60;100261.66;5008812;28;20207;-73
2021/05/12 09:43:36;;;;;;;9.83;8.83;;;;;;;14.96;73.20;100259.81;5007528;28;20904;-72
2021/05/12 09:46:27;;;;;;;9.40;8.50;;;;;;;15.02;73.64;100262.81;5006586;28;20275;-72
2021/05/12 09:49:08;;;;;;;10.83;9.00;;;;;;;15.11;73.31;100261.16;4993557;28;20207;-71
2021/05/12 09:51:37;;;;;;;8.33;7.53;;;;;;;15.18;73.48;100262.31;5008287;28;20230;-71
2021/05/12 09:54:10;;;;;;;9.17;8.37;;;;;;;15.25;73.31;100255.41;5006944;28;20206;-72
2021/05/12 09:56:49;;;;;;;9.57;8.17;;;;;;;15.33;72.97;100252.03;5037454;22;20246;-71
2021/05/12 09:59:18;;;;;;;9.30;8.03;;;;;;;15.40;73.08;100263.94;5014876;28;20223;-70
2021/05/12 10:01:47;;;;;;;8.40;7.60;;;;;;;15.44;71.69;100262.66;5015122;28;20233;-71
2021/05/12 10:04:38;;;;;;;7.90;7.10;;;;;;;15.39;71.49;100256.88;5015136;28;20217;-71
2021/05/12 10:07:15;;;;;;;8.40;7.50;;;;;;;15.36;71.18;100262.50;5015140;28;20249;-70
2021/05/12 10:09:44;;;;;;;9.50;8.33;;;;;;;15.33;70.55;100260.94;5014774;28;20901;-70
2021/05/12 10:12:12;;;;;;;8.20;7.40;;;;;;;15.31;70.33;100262.91;5015243;28;20688;-70
2021/05/12 10:14:41;;;;;;;9.70;8.20;;;;;;;15.26;70.07;100260.63;5014491;28;20203;-70
2021/05/12 10:17:09;;;;;;;9.47;8.20;;;;;;;15.26;69.55;100259.78;5016260;28;20218;-69
2021/05/12 10:19:35;;;;;;;9.50;8.50;;;;;;;15.28;69.78;100264.03;5020051;28;20264;-70
2021/05/12 10:22:03;;;;;;;10.93;9.43;;;;;;;15.35;69.99;100263.50;5016775;28;20210;-71
2021/05/12 10:24:30;;;;;;;9.40;8.30;;;;;;;15.42;70.08;100265.47;5015795;28;20198;-69
2021/05/12 10:26:59;;;;;;;8.97;8.07;;;;;;;15.50;69.87;100260.28;5018868;28;20605;-70
2021/05/12 10:29:26;;;;;;;9.53;8.53;;;;;;;15.56;69.09;100262.47;5017319;28;20238;-69
2021/05/12 10:31:52;;;;;;;8.93;8.03;;;;;;;15.62;69.00;100263.72;5017978;28;20682;-69
2021/05/12 10:34:19;;;;;;;8.60;7.80;;;;;;;15.68;68.44;100260.50;5014969;28;20223;-71
2021/05/12 10:36:46;;;;;;;10.13;8.63;;;;;;;15.72;68.03;100256.53;5016177;28;20618;-70
2021/05/12 10:39:13;;;;;;;8.27;7.43;;;;;;;15.76;67.82;100263.34;5013777;28;20203;-69
2021/05/12 10:41:46;;;;;;;10.50;8.87;;;;;;;15.81;67.66;100261.06;5012658;28;20199;-70
2021/05/12 10:44:19;;;;;;;9.40;8.37;;;;;;;15.89;67.51;100268.44;5014069;28;20269;-70
2021/05/12 10:46:57;;;;;;;9.20;7.77;;;;;;;15.95;67.29;100265.16;5017054;28;20238;-70
2021/05/12 10:49:24;;;;;;;9.23;8.33;;;;;;;16.01;67.05;100261.91;5016250;28;20209;-68
2021/05/12 10:51:52;;;;;;;9.03;8.13;;;;;;;16.09;66.82;100266.59;5016088;28;20257;-69
2021/05/12 10:54:39;;;;;;;9.43;8.53;;;;;;;16.16;66.86;100265.03;5016291;28;20214;-68
2021/05/12 10:57:06;;;;;;;8.73;7.83;;;;;;;16.22;66.84;100264.47;5011433;28;20235;-70
2021/05/12 10:59:33;;;;;;;9.73;8.80;;;;;;;16.26;65.91;100265.88;5023107;28;20195;-68
2021/05/12 11:01:59;;;;;;;10.27;9.27;;;;;;;16.30;66.08;100265.44;5019948;28;20199;-70
2021/05/12 11:04:26;;;;;;;11.63;9.27;;;;;;;16.36;65.85;100264.03;5015886;28;20680;-70
2021/05/12 11:07:02;;;;;;;10.53;9.53;;;;;;;16.41;65.86;100259.06;5012491;28;20230;-69
2021/05/12 11:09:47;;;;;;;10.50;9.40;;;;;;;16.45;65.42;100268.56;5014138;28;20314;-69
2021/05/12 11:12:17;;;;;;;10.70;8.90;;;;;;;16.51;65.09;100265.25;5015551;28;20285;-70
2021/05/12 11:14:56;;;;;;;9.47;8.57;;;;;;;16.58;64.95;100258.31;5015510;28;20210;-70